Time;durP1;ratioP1;P1;durP2;ratioP2;P2;SDS_P1;SDS_P2;PMS_P1;PMS_P2;Temp;Humidity;BMP_temperature;BMP_pressure;BME280_temperature;BME280_humidity;BME280_pressure;Samples;Min_cycle;Max_cycle;Signal;HPM_P1;HPM_P2
2022/03/05 00:00:13;;;;;;;0.40;0.30;;;2.20;76.10;;;;;;4991378;28;20399;-73
2022/03/05 00:02:39;;;;;;;0.40;0.20;;;2.00;76.30;;;;;;4973503;28;20418;-73
2022/03/05 00:05:05;;;;;;;0.40;0.30;;;2.00;75.80;;;;;;4990331;28;20872;-73
2022/03/05 00:07:31;;;;;;;0.70;0.60;;;2.00;76.10;;;;;;4990810;28;20390;-73
2022/03/05 00:09:56;;;;;;;1.10;0.70;;;1.90;75.50;;;;;;4972745;28;20395;-73
2022/03/05 00:12:22;;;;;;;1.10;0.60;;;1.90;75.60;;;;;;4990739;28;20835;-73
2022/03/05 00:14:48;;;;;;;0.40;0.20;;;2.00;76.40;;;;;;4990535;28;20442;-73
2022/03/05 00:17:14;;;;;;;0.50;0.50;;;1.90;76.80;;;;;;4989593;28;20399;-73
2022/03/05 00:19:39;;;;;;;0.60;0.60;;;1.90;76.70;;;;;;4973242;28;20841;-73
2022/03/05 00:22:05;;;;;;;1.00;0.90;;;1.80;76.70;;;;;;4990552;28;20391;-73
2022/03/05 00:24:31;;;;;;;0.40;0.20;;;1.70;77.00;;;;;;4990599;28;20391;-73
2022/03/05 00:26:57;;;;;;;1.30;1.20;;;1.80;77.40;;;;;;4990896;28;20864;-73
2022/03/05 00:29:24;;;;;;;0.90;0.90;;;1.80;77.50;;;;;;4991188;28;20759;-73
2022/03/05 00:31:50;;;;;;;0.40;0.28;;;1.80;78.10;;;;;;4994567;28;20450;-73
2022/03/05 00:34:16;;;;;;;0.40;0.30;;;1.70;76.90;;;;;;4993992;28;20406;-73
2022/03/05 00:36:42;;;;;;;0.40;0.20;;;1.70;77.40;;;;;;4977203;28;20473;-73
2022/03/05 00:39:08;;;;;;;0.40;0.20;;;1.80;77.90;;;;;;4994489;28;20497;-73
2022/03/05 00:41:34;;;;;;;0.40;0.30;;;1.80;77.20;;;;;;4993768;28;20747;-73
2022/03/05 00:44:00;;;;;;;0.63;0.50;;;1.80;77.70;;;;;;4994626;28;20410;-73
2022/03/05 00:46:25;;;;;;;1.60;1.20;;;1.80;78.20;;;;;;4993785;28;20464;-73
2022/03/05 00:48:52;;;;;;;0.40;0.22;;;1.70;77.30;;;;;;4993766;28;20398;-73
2022/03/05 00:51:18;;;;;;;0.40;0.30;;;1.70;77.60;;;;;;4994008;28;20782;-72
2022/03/05 00:53:44;;;;;;;0.40;0.20;;;1.60;78.80;;;;;;4993013;28;20394;-73
2022/03/05 00:56:10;;;;;;;0.50;0.50;;;1.50;78.40;;;;;;4994456;28;20394;-74
2022/03/05 00:58:35;;;;;;;0.50;0.50;;;1.50;78.80;;;;;;4993259;28;20448;-71
2022/03/05 01:01:01;;;;;;;1.50;0.60;;;1.50;78.20;;;;;;4976681;28;20386;-71
2022/03/05 01:03:27;;;;;;;2.60;0.80;;;1.60;78.10;;;;;;4976180;28;20395;-71
2022/03/05 01:05:54;;;;;;;0.60;0.60;;;1.50;78.20;;;;;;4993374;28;20390;-71
2022/03/05 01:08:20;;;;;;;0.40;0.20;;;1.60;78.10;;;;;;4976676;28;20402;-71
2022/03/05 01:10:47;;;;;;;0.90;0.70;;;1.50;78.30;;;;;;4992951;28;20787;-72
2022/03/05 01:13:12;;;;;;;1.10;1.10;;;1.40;78.30;;;;;;4994318;28;20394;-72
2022/03/05 01:15:38;;;;;;;0.40;0.20;;;1.60;79.20;;;;;;4993656;28;20414;-72
2022/03/05 01:18:04;;;;;;;2.20;1.70;;;1.40;78.80;;;;;;4993261;28;20449;-72
2022/03/05 01:20:30;;;;;;;0.50;0.50;;;1.40;79.20;;;;;;4976035;28;20412;-72
2022/03/05 01:22:56;;;;;;;1.60;0.70;;;1.40;80.60;;;;;;4992729;28;20403;-72
2022/03/05 01:25:21;;;;;;;0.40;0.20;;;1.40;79.10;;;;;;4993732;28;20481;-72
2022/03/05 01:27:47;;;;;;;0.50;0.50;;;1.50;79.20;;;;;;4993482;28;20855;-72
2022/03/05 01:30:13;;;;;;;0.60;0.60;;;1.50;78.20;;;;;;4992545;28;20504;-72
2022/03/05 01:32:39;;;;;;;0.40;0.20;;;1.40;79.20;;;;;;4993679;28;20423;-72
2022/03/05 01:35:05;;;;;;;0.40;0.30;;;1.40;80.10;;;;;;4975180;28;20945;-72
2022/03/05 01:37:31;;;;;;;0.40;0.30;;;1.30;78.90;;;;;;4992950;28;20395;-72
2022/03/05 01:39:57;;;;;;;1.42;1.38;;;1.30;80.00;;;;;;4993187;28;20442;-72
2022/03/05 01:42:24;;;;;;;0.40;0.20;;;1.30;79.90;;;;;;4991561;28;20394;-72
2022/03/05 01:44:50;;;;;;;0.40;0.20;;;1.30;80.00;;;;;;4993487;28;20387;-72
2022/03/05 01:47:16;;;;;;;0.40;0.30;;;1.40;80.80;;;;;;4975206;28;20399;-72
2022/03/05 01:49:42;;;;;;;0.40;0.30;;;1.40;79.90;;;;;;4993046;28;20414;-72
2022/03/05 01:52:08;;;;;;;0.40;0.20;;;1.30;78.50;;;;;;4993245;28;20413;-72
2022/03/05 01:54:34;;;;;;;1.30;1.00;;;1.30;79.20;;;;;;4992104;28;20382;-72
2022/03/05 01:57:01;;;;;;;0.40;0.20;;;1.30;80.10;;;;;;4993067;28;20382;-72
2022/03/05 01:59:27;;;;;;;0.40;0.20;;;1.30;80.00;;;;;;4992599;28;20430;-72
2022/03/05 02:01:53;;;;;;;0.40;0.20;;;1.20;80.20;;;;;;4993414;28;20389;-72
2022/03/05 02:04:19;;;;;;;0.40;0.20;;;1.20;81.00;;;;;;4975628;28;20394;-72
2022/03/05 02:06:44;;;;;;;0.40;0.40;;;1.30;78.80;;;;;;4992065;28;20390;-72
2022/03/05 02:09:10;;;;;;;1.20;0.80;;;1.30;81.40;;;;;;4992923;28;20390;-72
2022/03/05 02:11:36;;;;;;;0.40;0.20;;;1.20;80.70;;;;;;4992096;28;20422;-72
2022/03/05 02:14:02;;;;;;;0.40;0.40;;;1.20;81.10;;;;;;4992782;28;20477;-72
2022/03/05 02:16:29;;;;;;;0.40;0.40;;;1.20;82.40;;;;;;4992715;28;20397;-72
2022/03/05 02:18:58;;;;;;;0.40;0.40;;;1.20;81.50;;;;;;4992089;28;20695;-72
2022/03/05 02:21:25;;;;;;;0.70;0.70;;;1.20;80.70;;;;;;4992796;28;20398;-72
2022/03/05 02:23:51;;;;;;;1.40;0.70;;;1.20;80.80;;;;;;4992226;28;20490;-72
2022/03/05 02:26:17;;;;;;;0.47;0.47;;;1.10;80.90;;;;;;4992328;28;20429;-72
2022/03/05 02:28:43;;;;;;;1.40;1.30;;;1.10;80.90;;;;;;4974871;28;20430;-72
2022/03/05 02:31:09;;;;;;;0.40;0.20;;;1.10;81.20;;;;;;4991766;28;20407;-72
2022/03/05 02:33:35;;;;;;;0.40;0.20;;;1.10;80.70;;;;;;4992645;28;20418;-72
2022/03/05 02:36:03;;;;;;;0.80;0.80;;;1.10;81.50;;;;;;4974229;28;20422;-72
2022/03/05 02:38:29;;;;;;;0.60;0.60;;;1.10;81.30;;;;;;4992427;28;20395;-72
2022/03/05 02:40:55;;;;;;;0.40;0.40;;;1.10;81.80;;;;;;4991940;28;20399;-72
2022/03/05 02:43:22;;;;;;;0.40;0.30;;;1.10;82.00;;;;;;4974789;28;20395;-72
2022/03/05 02:45:49;;;;;;;0.40;0.30;;;1.10;80.90;;;;;;4992342;28;20394;-72
2022/03/05 02:48:16;;;;;;;0.40;0.20;;;1.10;80.80;;;;;;4991391;28;20387;-72
2022/03/05 02:50:43;;;;;;;0.40;0.40;;;1.00;81.10;;;;;;4992502;28;20528;-72
2022/03/05 02:53:09;;;;;;;0.50;0.50;;;1.10;81.80;;;;;;4991104;28;20441;-72
2022/03/05 02:55:35;;;;;;;0.70;0.60;;;1.10;80.50;;;;;;4975005;28;20402;-72
2022/03/05 02:58:02;;;;;;;0.90;0.60;;;0.90;80.60;;;;;;4992074;28;20378;-72
2022/03/05 03:00:27;;;;;;;0.40;0.20;;;1.00;81.40;;;;;;4973937;28;20405;-72
2022/03/05 03:02:53;;;;;;;0.40;0.20;;;0.90;81.40;;;;;;4991578;28;20391;-71
2022/03/05 03:05:19;;;;;;;0.40;0.20;;;1.00;81.50;;;;;;4991201;28;20419;-72
2022/03/05 03:07:46;;;;;;;0.40;0.25;;;1.00;81.60;;;;;;4974814;28;20394;-72
2022/03/05 03:10:12;;;;;;;1.40;1.30;;;0.80;81.60;;;;;;4991999;28;20461;-72
2022/03/05 03:12:39;;;;;;;0.40;0.30;;;0.80;82.90;;;;;;4991189;28;20426;-72
2022/03/05 03:15:06;;;;;;;0.40;0.30;;;0.80;82.60;;;;;;4991752;28;20387;-71
2022/03/05 03:17:44;;;;;;;0.40;0.40;;;0.80;82.00;;;;;;4991078;28;20406;-72
2022/03/05 03:20:11;;;;;;;0.90;0.90;;;0.70;82.10;;;;;;4973884;28;20426;-71
2022/03/05 03:22:37;;;;;;;0.40;0.20;;;0.80;83.30;;;;;;4990961;28;20390;-72
2022/03/05 03:25:04;;;;;;;0.50;0.50;;;0.80;82.90;;;;;;4990964;28;20435;-72
2022/03/05 03:27:30;;;;;;;0.40;0.40;;;0.80;82.60;;;;;;4991619;28;20394;-71
2022/03/05 03:29:56;;;;;;;0.40;0.20;;;0.70;82.50;;;;;;4990546;28;21171;-71
2022/03/05 03:32:21;;;;;;;0.55;0.55;;;0.70;83.10;;;;;;4991004;28;20476;-71
2022/03/05 03:34:47;;;;;;;0.40;0.20;;;0.70;82.10;;;;;;4989994;28;20759;-72
2022/03/05 03:37:13;;;;;;;0.40;0.20;;;0.70;83.30;;;;;;4974029;28;20433;-71
2022/03/05 03:39:39;;;;;;;0.40;0.20;;;0.60;83.00;;;;;;4991017;28;20414;-71
2022/03/05 03:42:04;;;;;;;0.40;0.20;;;0.70;83.10;;;;;;4973379;28;20401;-71
2022/03/05 03:44:30;;;;;;;0.50;0.50;;;0.70;83.90;;;;;;4991421;28;20832;-72
2022/03/05 03:46:57;;;;;;;0.55;0.45;;;0.70;84.00;;;;;;4990081;28;20378;-72
2022/03/05 03:49:23;;;;;;;0.40;0.20;;;0.60;84.20;;;;;;4974078;28;20417;-72
2022/03/05 03:51:49;;;;;;;1.50;1.00;;;0.60;85.10;;;;;;4973466;28;20843;-72
2022/03/05 03:54:15;;;;;;;0.50;0.30;;;0.60;84.80;;;;;;4990392;28;20763;-72
2022/03/05 03:56:41;;;;;;;0.80;0.60;;;0.50;86.20;;;;;;4990911;28;20390;-72
2022/03/05 03:59:06;;;;;;;0.40;0.20;;;0.40;85.30;;;;;;4990315;28;20390;-72
2022/03/05 04:01:32;;;;;;;0.40;0.20;;;0.40;86.00;;;;;;4990704;28;20394;-72
2022/03/05 04:03:58;;;;;;;1.30;0.90;;;0.40;86.10;;;;;;4990385;28;20426;-72
2022/03/05 04:06:23;;;;;;;0.40;0.30;;;0.30;86.60;;;;;;4990520;28;20450;-71
2022/03/05 04:08:49;;;;;;;0.40;0.20;;;0.30;87.10;;;;;;4990363;28;20402;-72
2022/03/05 04:11:19;;;;;;;0.40;0.20;;;0.20;87.70;;;;;;4989992;28;20453;-72
2022/03/05 04:13:47;;;;;;;0.70;0.70;;;0.20;87.50;;;;;;4991082;28;20871;-72
2022/03/05 04:16:13;;;;;;;0.40;0.20;;;0.30;88.10;;;;;;4991181;28;20387;-71
2022/03/05 04:18:39;;;;;;;0.40;0.20;;;0.20;88.10;;;;;;4990228;28;20454;-72
2022/03/05 04:21:07;;;;;;;0.70;0.70;;;0.10;89.80;;;;;;4973266;28;20403;-72
2022/03/05 04:23:33;;;;;;;0.40;0.30;;;0.00;89.20;;;;;;4990133;28;20391;-72
2022/03/05 04:25:59;;;;;;;0.40;0.20;;;0.00;90.20;;;;;;4990747;28;20391;-72
2022/03/05 04:28:25;;;;;;;0.40;0.20;;;-0.10;91.10;;;;;;4990933;28;20414;-72
2022/03/05 04:30:51;;;;;;;0.40;0.40;;;-0.10;91.60;;;;;;4990135;28;20434;-72
2022/03/05 04:33:16;;;;;;;0.40;0.20;;;-0.10;91.90;;;;;;4991040;28;20445;-72
2022/03/05 04:35:42;;;;;;;0.40;0.20;;;-0.10;92.00;;;;;;4990173;28;20867;-72
2022/03/05 04:38:08;;;;;;;0.40;0.20;;;-0.10;93.10;;;;;;4991437;28;20393;-72
2022/03/05 04:40:34;;;;;;;0.40;0.20;;;-0.20;93.00;;;;;;4991151;28;20394;-72
2022/03/05 04:42:59;;;;;;;0.70;0.60;;;-0.20;94.00;;;;;;4990086;28;20416;-72
2022/03/05 04:45:26;;;;;;;0.40;0.20;;;-0.30;93.20;;;;;;4991275;28;20425;-72
2022/03/05 04:47:52;;;;;;;0.60;0.60;;;-0.30;93.40;;;;;;4973183;28;20394;-72
2022/03/05 04:50:18;;;;;;;0.40;0.30;;;-0.30;94.20;;;;;;4991046;28;20516;-72
2022/03/05 04:52:44;;;;;;;0.60;0.60;;;-0.30;94.60;;;;;;4991042;28;20477;-72
2022/03/05 04:55:10;;;;;;;0.40;0.30;;;-0.30;94.10;;;;;;4990333;28;20417;-72
2022/03/05 04:57:36;;;;;;;0.40;0.20;;;-0.20;94.40;;;;;;4991267;28;20394;-72
2022/03/05 05:00:07;;;;;;;0.40;0.20;;;-0.20;94.60;;;;;;4972753;28;20402;-72
2022/03/05 05:02:33;;;;;;;0.40;0.20;;;-0.30;94.20;;;;;;4990973;28;20459;-72
2022/03/05 05:05:02;;;;;;;0.40;0.30;;;-0.40;93.90;;;;;;4990979;28;20383;-72
2022/03/05 05:07:28;;;;;;;0.40;0.20;;;-0.40;94.40;;;;;;4990514;28;20391;-72
2022/03/05 05:09:57;;;;;;;0.40;0.20;;;-0.40;93.50;;;;;;4990900;28;20858;-72
2022/03/05 05:12:25;;;;;;;0.40;0.20;;;-0.40;94.50;;;;;;4989997;28;20495;-72
2022/03/05 05:14:51;;;;;;;0.40;0.20;;;-0.50;94.50;;;;;;4991660;28;20378;-72
2022/03/05 05:17:24;;;;;;;0.40;0.30;;;-0.50;94.80;;;;;;4993594;28;20529;-72
2022/03/05 05:19:50;;;;;;;0.40;0.20;;;-0.40;94.90;;;;;;4976937;28;20405;-72
2022/03/05 05:22:15;;;;;;;0.40;0.20;;;-0.50;95.70;;;;;;4993559;28;20395;-72
2022/03/05 05:24:41;;;;;;;0.40;0.20;;;-0.60;94.60;;;;;;4976663;28;20390;-72
2022/03/05 05:27:07;;;;;;;0.40;0.20;;;-0.60;95.00;;;;;;4994024;28;20820;-71
2022/03/05 05:29:32;;;;;;;0.40;0.20;;;-0.60;95.10;;;;;;4975938;28;20401;-71
2022/03/05 05:31:58;;;;;;;0.40;0.30;;;-0.60;95.20;;;;;;4994130;28;20422;-72
2022/03/05 05:34:24;;;;;;;0.40;0.30;;;-0.60;95.40;;;;;;4994167;28;20387;-72
2022/03/05 05:36:50;;;;;;;0.40;0.20;;;-0.80;95.90;;;;;;4993480;28;20390;-72
2022/03/05 05:39:16;;;;;;;0.40;0.20;;;-0.70;96.60;;;;;;4993958;28;20731;-72
2022/03/05 05:41:42;;;;;;;0.80;0.80;;;-0.80;96.20;;;;;;4975743;28;20751;-72
2022/03/05 05:44:10;;;;;;;0.40;0.20;;;-0.80;97.60;;;;;;4993807;28;20382;-72
2022/03/05 05:46:37;;;;;;;0.40;0.20;;;-0.70;96.30;;;;;;4976374;28;20427;-71
2022/03/05 05:49:03;;;;;;;0.40;0.20;;;-0.80;97.00;;;;;;4993123;28;20416;-72
2022/03/05 05:51:29;;;;;;;0.40;0.30;;;-0.80;97.00;;;;;;4993927;28;20476;-71
2022/03/05 05:53:56;;;;;;;0.40;0.20;;;-0.90;96.80;;;;;;4993364;28;20442;-72
2022/03/05 05:56:21;;;;;;;0.40;0.20;;;-0.90;97.40;;;;;;4993406;28;20851;-72
2022/03/05 05:58:49;;;;;;;0.40;0.20;;;-0.90;97.70;;;;;;4993159;28;20580;-72
2022/03/05 06:01:15;;;;;;;0.70;0.60;;;-0.90;97.80;;;;;;4993272;28;20394;-72
2022/03/05 06:03:42;;;;;;;0.40;0.20;;;-1.00;97.30;;;;;;4993557;28;20441;-72
2022/03/05 06:06:08;;;;;;;0.40;0.30;;;-1.00;97.30;;;;;;4992715;28;20763;-72
2022/03/05 06:08:33;;;;;;;0.40;0.20;;;-1.10;97.10;;;;;;4959765;28;20452;-72
2022/03/05 06:11:00;;;;;;;0.40;0.20;;;-1.00;97.10;;;;;;4992649;28;20543;-72
2022/03/05 06:13:25;;;;;;;0.40;0.20;;;-1.10;97.10;;;;;;4993053;28;20426;-72
2022/03/05 06:15:51;;;;;;;0.40;0.40;;;-1.00;97.90;;;;;;4993578;28;20386;-72
2022/03/05 06:18:18;;;;;;;0.40;0.20;;;-1.00;97.10;;;;;;4992433;28;20725;-72
2022/03/05 06:20:43;;;;;;;0.40;0.20;;;-1.00;97.40;;;;;;4993505;28;20489;-71
2022/03/05 06:23:09;;;;;;;0.40;0.40;;;-1.00;97.00;;;;;;4993111;28;20915;-72
2022/03/05 06:25:35;;;;;;;0.40;0.40;;;-1.10;97.00;;;;;;4992716;28;20390;-71
2022/03/05 06:28:01;;;;;;;0.40;0.30;;;-0.90;97.90;;;;;;4975126;28;20390;-72
2022/03/05 06:30:27;;;;;;;0.40;0.20;;;-1.00;98.40;;;;;;4974994;28;20617;-72
2022/03/05 06:32:52;;;;;;;0.40;0.20;;;-0.90;97.10;;;;;;4993182;28;20915;-72
2022/03/05 06:35:18;;;;;;;0.40;0.40;;;-1.00;97.20;;;;;;4993053;28;20386;-72
2022/03/05 06:37:45;;;;;;;0.40;0.20;;;-0.90;97.30;;;;;;4991535;28;20386;-72
2022/03/05 06:40:11;;;;;;;0.40;0.20;;;-1.00;97.20;;;;;;4992915;28;20387;-72
2022/03/05 06:42:39;;;;;;;0.40;0.20;;;-0.80;98.10;;;;;;4992002;28;20383;-72
2022/03/05 06:45:05;;;;;;;0.40;0.20;;;-0.80;97.20;;;;;;4992729;28;20840;-72
2022/03/05 06:47:31;;;;;;;0.40;0.20;;;-0.70;95.80;;;;;;4991831;28;20473;-72
2022/03/05 06:49:57;;;;;;;0.40;0.40;;;-0.60;95.90;;;;;;4991739;28;20445;-72
2022/03/05 06:52:23;;;;;;;0.60;0.60;;;-0.60;95.10;;;;;;4992112;28;20879;-72
2022/03/05 06:54:49;;;;;;;0.40;0.20;;;-0.70;95.90;;;;;;4991676;28;20382;-72
2022/03/05 06:57:15;;;;;;;0.40;0.30;;;-0.50;96.20;;;;;;4974854;28;20386;-72
2022/03/05 06:59:41;;;;;;;0.40;0.30;;;-0.50;96.10;;;;;;4992246;28;20385;-72
2022/03/05 07:02:07;;;;;;;0.40;0.30;;;-0.50;95.50;;;;;;4974773;28;20481;-72
2022/03/05 07:04:33;;;;;;;0.40;0.30;;;-0.40;95.10;;;;;;4974616;28;20402;-72
2022/03/05 07:06:58;;;;;;;0.60;0.60;;;-0.40;94.30;;;;;;4991865;28;20387;-72
2022/03/05 07:09:24;;;;;;;0.40;0.20;;;-0.40;94.10;;;;;;4991651;28;20733;-72
2022/03/05 07:11:50;;;;;;;0.40;0.30;;;-0.40;93.90;;;;;;4991387;28;20915;-72
2022/03/05 07:14:16;;;;;;;0.40;0.20;;;-0.30;94.20;;;;;;4991694;28;20394;-71
2022/03/05 07:16:41;;;;;;;0.40;0.20;;;-0.20;93.30;;;;;;4992096;28;20386;-72
2022/03/05 07:19:07;;;;;;;0.40;0.20;;;-0.10;92.70;;;;;;4991656;28;20393;-72
2022/03/05 07:21:33;;;;;;;0.50;0.50;;;0.10;92.60;;;;;;4991680;28;20537;-72
2022/03/05 07:23:59;;;;;;;0.40;0.30;;;0.10;92.20;;;;;;4991682;28;20399;-72
2022/03/05 07:26:25;;;;;;;1.20;1.00;;;0.20;92.00;;;;;;4991429;28;20390;-71
2022/03/05 07:28:51;;;;;;;0.40;0.20;;;0.40;92.20;;;;;;4991934;28;20375;-71
2022/03/05 07:31:17;;;;;;;0.40;0.20;;;0.40;91.30;;;;;;4990908;28;20420;-72
2022/03/05 07:33:43;;;;;;;0.80;0.50;;;0.60;91.10;;;;;;4974364;28;20413;-71
2022/03/05 07:36:09;;;;;;;0.40;0.20;;;0.70;90.50;;;;;;4990842;28;20461;-72
2022/03/05 07:38:35;;;;;;;0.40;0.20;;;0.70;89.80;;;;;;4991443;28;20813;-72
2022/03/05 07:41:01;;;;;;;0.40;0.30;;;0.70;90.10;;;;;;4973574;28;20434;-71
2022/03/05 07:43:27;;;;;;;0.40;0.20;;;0.80;88.30;;;;;;4973762;28;20392;-72
2022/03/05 07:45:53;;;;;;;0.40;0.20;;;0.90;88.30;;;;;;4991975;28;20383;-71
2022/03/05 07:48:20;;;;;;;0.40;0.20;;;0.80;87.60;;;;;;4980685;28;20803;-72
2022/03/05 07:50:48;;;;;;;0.40;0.30;;;1.00;87.50;;;;;;4982046;28;20493;-71
2022/03/05 07:53:14;;;;;;;0.40;0.30;;;0.90;89.20;;;;;;4990448;28;20957;-72
2022/03/05 07:55:39;;;;;;;0.77;0.77;;;1.00;90.90;;;;;;4970989;28;20404;-71
2022/03/05 07:58:05;;;;;;;0.40;0.40;;;1.20;91.10;;;;;;4976146;28;20400;-73
2022/03/05 08:00:31;;;;;;;1.20;1.10;;;1.20;94.00;;;;;;4969347;28;20400;-72
2022/03/05 08:02:57;;;;;;;1.20;1.10;;;1.10;95.30;;;;;;4982941;28;20398;-72
2022/03/05 08:05:23;;;;;;;0.43;0.35;;;1.00;97.00;;;;;;4982625;28;20400;-72
2022/03/05 08:07:49;;;;;;;1.00;1.00;;;1.10;97.10;;;;;;4982294;28;20421;-72
2022/03/05 08:10:15;;;;;;;0.70;0.70;;;1.10;97.90;;;;;;4989942;28;20744;-72
2022/03/05 08:12:42;;;;;;;0.80;0.80;;;1.00;98.10;;;;;;4965808;28;20448;-73
2022/03/05 08:15:08;;;;;;;0.40;0.30;;;0.90;98.50;;;;;;4983517;28;20529;-73
2022/03/05 08:17:34;;;;;;;0.40;0.20;;;1.20;98.20;;;;;;4983596;28;20394;-72
2022/03/05 08:20:00;;;;;;;0.40;0.20;;;1.10;97.80;;;;;;4972425;28;20414;-72
2022/03/05 08:22:26;;;;;;;0.40;0.20;;;1.40;97.50;;;;;;4987252;28;20538;-72
2022/03/05 08:24:52;;;;;;;0.40;0.30;;;1.50;96.60;;;;;;4970864;28;20510;-72
2022/03/05 08:27:18;;;;;;;0.40;0.40;;;1.50;96.10;;;;;;4971481;28;20464;-71
2022/03/05 08:29:44;;;;;;;0.40;0.30;;;1.40;96.20;;;;;;4971608;28;20456;-71
2022/03/05 08:32:10;;;;;;;0.40;0.20;;;1.50;96.50;;;;;;4989126;28;20484;-71
2022/03/05 08:34:36;;;;;;;0.40;0.20;;;1.40;96.50;;;;;;4987447;28;20460;-71
2022/03/05 08:37:02;;;;;;;1.10;0.90;;;1.60;96.90;;;;;;4984967;28;20399;-71
2022/03/05 08:39:28;;;;;;;1.15;1.05;;;1.60;96.40;;;;;;4985856;28;20391;-71
2022/03/05 08:41:54;;;;;;;0.40;0.30;;;1.70;96.20;;;;;;4986022;28;20402;-71
2022/03/05 08:44:20;;;;;;;0.40;0.40;;;1.70;95.50;;;;;;4989354;28;20421;-71
2022/03/05 08:46:46;;;;;;;0.75;0.40;;;1.80;94.30;;;;;;4987350;28;20387;-72
2022/03/05 08:49:11;;;;;;;1.00;1.00;;;1.70;94.30;;;;;;4981846;28;20392;-71
2022/03/05 08:51:38;;;;;;;0.40;0.20;;;1.90;94.50;;;;;;4989452;28;20843;-71
2022/03/05 08:54:07;;;;;;;1.70;1.20;;;1.90;93.20;;;;;;4992604;28;20408;-71
2022/03/05 08:56:33;;;;;;;0.40;0.30;;;1.90;93.00;;;;;;4990072;28;20382;-71
2022/03/05 08:58:58;;;;;;;0.40;0.20;;;2.00;93.40;;;;;;4973627;28;20804;-71
2022/03/05 09:01:24;;;;;;;1.40;1.30;;;2.20;93.20;;;;;;4968994;28;20407;-71
2022/03/05 09:03:50;;;;;;;0.50;0.50;;;2.20;93.00;;;;;;4982048;28;20413;-71
2022/03/05 09:06:15;;;;;;;0.40;0.40;;;2.30;92.30;;;;;;4974422;28;20398;-71
2022/03/05 09:08:41;;;;;;;0.80;0.70;;;2.40;91.60;;;;;;4993325;28;20806;-71
2022/03/05 09:11:08;;;;;;;0.43;0.28;;;2.60;91.60;;;;;;4991211;28;20517;-72
2022/03/05 09:13:33;;;;;;;0.50;0.50;;;2.80;90.80;;;;;;4993439;28;20779;-71
2022/03/05 09:15:59;;;;;;;0.40;0.40;;;2.70;90.50;;;;;;4992925;28;20448;-72
2022/03/05 09:18:25;;;;;;;1.10;0.80;;;2.80;90.50;;;;;;4992711;28;20394;-71
2022/03/05 09:20:51;;;;;;;0.50;0.50;;;2.90;90.00;;;;;;4992792;28;20525;-71
2022/03/05 09:23:17;;;;;;;0.40;0.40;;;3.00;89.50;;;;;;4992273;28;20502;-71
2022/03/05 09:25:42;;;;;;;0.40;0.20;;;3.00;89.00;;;;;;4991637;28;20383;-71
2022/03/05 09:28:08;;;;;;;0.60;0.60;;;3.20;88.30;;;;;;4992476;28;20378;-71
2022/03/05 09:30:34;;;;;;;0.40;0.30;;;3.10;86.50;;;;;;4974873;28;20414;-71
2022/03/05 09:33:00;;;;;;;0.88;0.88;;;3.20;85.50;;;;;;4993217;28;20397;-71
2022/03/05 09:35:25;;;;;;;1.20;1.10;;;3.10;85.80;;;;;;4990660;28;20394;-72
2022/03/05 09:37:51;;;;;;;0.40;0.22;;;3.30;85.70;;;;;;4992077;28;20954;-71
2022/03/05 09:40:17;;;;;;;1.00;0.90;;;3.40;84.80;;;;;;4988070;28;20477;-72
2022/03/05 09:42:44;;;;;;;0.40;0.30;;;3.50;83.60;;;;;;4990865;28;20905;-72
2022/03/05 09:45:12;;;;;;;0.80;0.80;;;3.50;83.80;;;;;;4990126;28;20398;-71
2022/03/05 09:47:39;;;;;;;0.40;0.20;;;3.70;84.70;;;;;;4995573;28;20393;-71
2022/03/05 09:50:06;;;;;;;0.50;0.50;;;3.60;83.10;;;;;;4976226;28;20409;-71
2022/03/05 09:52:32;;;;;;;0.40;0.20;;;3.70;83.00;;;;;;4993135;28;20411;-71
2022/03/05 09:55:00;;;;;;;0.60;0.60;;;3.80;81.70;;;;;;4993437;28;20739;-72
2022/03/05 09:57:25;;;;;;;1.50;0.82;;;4.10;82.70;;;;;;4986843;28;20403;-72
2022/03/05 09:59:51;;;;;;;0.40;0.30;;;3.90;79.50;;;;;;4993195;28;20396;-72
2022/03/05 10:02:17;;;;;;;0.40;0.20;;;4.00;80.10;;;;;;4992277;28;20470;-72
2022/03/05 10:04:43;;;;;;;0.40;0.20;;;3.90;78.90;;;;;;4992500;28;20750;-73
2022/03/05 10:07:10;;;;;;;0.40;0.20;;;4.00;78.80;;;;;;4985531;28;20391;-72
2022/03/05 10:09:37;;;;;;;0.40;0.30;;;4.10;78.60;;;;;;4986202;28;20395;-72
2022/03/05 10:12:24;;;;;;;0.40;0.40;;;4.30;78.80;;;;;;4989072;28;20426;-72
2022/03/05 10:15:15;;;;;;;0.50;0.50;;;4.50;76.30;;;;;;4989551;28;20389;-72
2022/03/05 10:17:59;;;;;;;0.60;0.60;;;4.50;75.70;;;;;;4972216;28;20390;-72
2022/03/05 10:20:30;;;;;;;0.40;0.30;;;4.60;77.30;;;;;;4991743;28;20410;-72
2022/03/05 10:23:04;;;;;;;0.80;0.80;;;4.50;76.50;;;;;;4973890;28;20868;-72
2022/03/05 10:25:37;;;;;;;0.40;0.20;;;4.50;75.70;;;;;;4991259;28;20491;-72
2022/03/05 10:28:08;;;;;;;0.40;0.20;;;4.70;76.50;;;;;;4991629;28;20437;-72
2022/03/05 10:30:46;;;;;;;0.40;0.22;;;4.80;75.90;;;;;;4991955;28;20417;-72
2022/03/05 10:33:34;;;;;;;1.30;1.20;;;4.90;76.10;;;;;;4991059;28;20397;-72
2022/03/05 10:36:06;;;;;;;0.40;0.20;;;5.00;73.40;;;;;;4990414;28;20386;-72
2022/03/05 10:38:52;;;;;;;0.50;0.50;;;5.00;71.70;;;;;;4991570;28;20477;-72
2022/03/05 10:41:21;;;;;;;0.40;0.20;;;5.10;70.90;;;;;;4974888;28;20917;-72
2022/03/05 10:44:02;;;;;;;0.60;0.50;;;5.30;70.70;;;;;;4991255;28;20922;-71
2022/03/05 10:46:38;;;;;;;0.52;0.52;;;5.20;68.80;;;;;;4990472;28;20387;-72
2022/03/05 10:49:21;;;;;;;0.50;0.50;;;5.40;69.40;;;;;;4990834;28;20402;-72
2022/03/05 10:51:49;;;;;;;0.55;0.50;;;5.40;69.50;;;;;;4971005;28;20430;-72
2022/03/05 10:54:34;;;;;;;0.60;0.60;;;5.40;69.50;;;;;;4990871;28;20394;-72
2022/03/05 10:57:22;;;;;;;0.40;0.20;;;5.60;69.10;;;;;;4989660;28;20437;-72
2022/03/05 10:59:50;;;;;;;0.40;0.20;;;5.60;67.50;;;;;;4988494;28;20398;-72
2022/03/05 11:02:18;;;;;;;0.40;0.30;;;5.70;67.00;;;;;;4973059;28;20485;-72
2022/03/05 11:04:44;;;;;;;0.60;0.60;;;6.00;66.60;;;;;;4973776;28;20426;-72
2022/03/05 11:07:12;;;;;;;1.90;1.20;;;6.70;67.80;;;;;;4972217;28;20403;-72
2022/03/05 11:09:42;;;;;;;0.70;0.70;;;6.60;62.50;;;;;;4991443;28;20404;-72
2022/03/05 11:12:09;;;;;;;0.40;0.20;;;6.40;60.50;;;;;;4972274;28;20437;-72
2022/03/05 11:14:36;;;;;;;0.40;0.40;;;6.20;60.40;;;;;;4990853;28;20382;-72
2022/03/05 11:17:04;;;;;;;0.40;0.20;;;6.40;57.60;;;;;;4956199;28;20405;-71
2022/03/05 11:19:30;;;;;;;0.80;0.70;;;6.60;57.50;;;;;;4989512;28;20463;-72
2022/03/05 11:21:57;;;;;;;0.60;0.60;;;6.60;55.90;;;;;;4990872;28;20395;-72
2022/03/05 11:24:24;;;;;;;0.40;0.20;;;7.00;56.50;;;;;;4989310;28;20429;-72
2022/03/05 11:26:52;;;;;;;0.40;0.40;;;7.00;55.30;;;;;;4989739;28;20453;-73
2022/03/05 11:29:25;;;;;;;0.40;0.20;;;7.20;53.70;;;;;;4972361;28;20445;-73
2022/03/05 11:31:52;;;;;;;0.40;0.20;;;7.50;52.50;;;;;;4986463;28;20851;-72
2022/03/05 11:34:25;;;;;;;0.40;0.20;;;8.10;51.30;;;;;;4990692;28;20477;-72
2022/03/05 11:36:52;;;;;;;0.40;0.20;;;8.40;50.20;;;;;;4989652;28;20383;-72
2022/03/05 11:39:27;;;;;;;0.40;0.40;;;8.60;46.70;;;;;;4987321;28;20383;-72
2022/03/05 11:42:05;;;;;;;0.40;0.27;;;9.10;43.70;;;;;;4987470;28;20427;-73
2022/03/05 11:44:37;;;;;;;0.40;0.20;;;9.10;42.10;;;;;;4989732;28;20386;-73
2022/03/05 11:47:31;;;;;;;0.40;0.20;;;9.90;42.80;;;;;;4989417;28;20417;-72
2022/03/05 11:49:58;;;;;;;0.40;0.22;;;10.60;42.10;;;;;;4987687;28;20409;-72
2022/03/05 11:52:46;;;;;;;0.40;0.20;;;9.90;40.30;;;;;;4990228;28;20803;-72
2022/03/05 11:55:16;;;;;;;0.40;0.20;;;10.60;38.90;;;;;;4989922;28;20391;-72
2022/03/05 11:57:52;;;;;;;0.60;0.40;;;10.90;39.90;;;;;;4987844;28;20441;-72
2022/03/05 12:00:29;;;;;;;2.20;0.53;;;10.60;38.50;;;;;;4973138;28;20423;-73
2022/03/05 12:02:56;;;;;;;0.40;0.20;;;11.70;36.70;;;;;;4986038;28;20383;-73
2022/03/05 12:05:44;;;;;;;0.40;0.20;;;11.90;36.40;;;;;;4972938;28;20425;-73
2022/03/05 12:08:33;;;;;;;0.43;0.28;;;11.10;35.60;;;;;;4985113;28;20776;-73
2022/03/05 12:11:18;;;;;;;0.40;0.20;;;11.30;34.50;;;;;;4978077;28;20516;-71
2022/03/05 12:13:54;;;;;;;0.40;0.30;;;11.50;36.50;;;;;;4989557;28;20479;-72
2022/03/05 12:16:25;;;;;;;4.10;0.85;;;11.60;34.60;;;;;;4988925;28;20880;-71
2022/03/05 12:18:53;;;;;;;0.40;0.30;;;11.90;33.90;;;;;;4989665;28;20853;-72
2022/03/05 12:21:30;;;;;;;0.40;0.20;;;12.40;34.40;;;;;;4991672;28;20406;-72
2022/03/05 12:23:59;;;;;;;0.50;0.40;;;13.00;34.80;;;;;;4991633;28;20748;-72
2022/03/05 12:26:34;;;;;;;0.50;0.40;;;12.30;33.70;;;;;;4994396;28;20898;-71
2022/03/05 12:29:02;;;;;;;0.40;0.20;;;12.60;31.10;;;;;;4976783;28;20942;-71
2022/03/05 12:31:28;;;;;;;0.40;0.30;;;11.30;30.90;;;;;;4977746;28;20417;-71
2022/03/05 12:33:53;;;;;;;0.40;0.30;;;11.30;32.40;;;;;;4994391;28;20945;-71
2022/03/05 12:36:21;;;;;;;0.40;0.20;;;10.90;33.20;;;;;;4994985;28;20386;-72
2022/03/05 12:38:55;;;;;;;0.40;0.20;;;11.00;35.40;;;;;;4994754;28;20390;-71
2022/03/05 12:41:21;;;;;;;0.40;0.40;;;11.30;36.80;;;;;;4977532;28;20811;-72
2022/03/05 12:43:46;;;;;;;2.50;0.70;;;11.70;34.70;;;;;;4994955;28;20428;-72
2022/03/05 12:46:12;;;;;;;0.40;0.40;;;11.50;34.40;;;;;;4976350;28;20402;-72
2022/03/05 12:48:38;;;;;;;0.40;0.25;;;11.00;33.40;;;;;;4994741;28;20389;-72
2022/03/05 12:51:04;;;;;;;0.60;0.60;;;12.20;34.50;;;;;;4994082;28;20481;-73
2022/03/05 12:53:34;;;;;;;0.40;0.30;;;11.90;32.70;;;;;;4994822;28;20398;-73